createdAt,value
2022-11-05T00:01:09.382Z,93366.06
2022-11-05T00:02:24.244Z,93375.31
2022-11-05T00:03:39.290Z,93370.91
2022-11-05T00:04:54.274Z,93370.78
2022-11-05T00:06:12.003Z,93373.75
2022-11-05T00:07:34.427Z,93371.34
2022-11-05T00:08:49.918Z,93368.81
2022-11-05T00:09:47.207Z,93377.09
2022-11-05T00:10:43.853Z,93378.63
2022-11-05T00:12:00.689Z,93372.66
2022-11-05T00:13:17.957Z,93373.25
2022-11-05T00:14:33.264Z,93371.25
2022-11-05T00:15:48.409Z,93359.47
2022-11-05T00:16:45.027Z,93370.09
2022-11-05T00:17:41.808Z,93372.19
2022-11-05T00:18:38.547Z,93353.38
2022-11-05T00:19:35.094Z,93358.97
2022-11-05T00:20:31.689Z,93352.19
2022-11-05T00:21:46.611Z,93357.56
2022-11-05T00:23:01.291Z,93347.81
2022-11-05T00:24:19.252Z,93325.19
2022-11-05T00:25:22.127Z,93347.69
2022-11-05T00:26:18.693Z,93357.22
2022-11-05T00:27:15.250Z,93284.50
2022-11-05T00:28:11.778Z,93353.75
2022-11-05T00:29:08.366Z,93353.53
2022-11-05T00:30:05.599Z,93361.19
2022-11-05T00:31:09.826Z,93349.44
2022-11-05T00:32:06.571Z,93324.88
2022-11-05T00:33:03.597Z,93350.38
2022-11-05T00:34:00.193Z,93348.16
2022-11-05T00:34:56.761Z,93344.66
2022-11-05T00:35:53.366Z,93341.50
2022-11-05T00:36:49.944Z,93330.38
2022-11-05T00:37:50.034Z,93339.13
2022-11-05T00:38:47.181Z,93340.78
2022-11-05T00:39:43.737Z,93351.28
2022-11-05T00:40:40.350Z,93341.22
2022-11-05T00:41:36.898Z,93335.47
2022-11-05T00:42:52.013Z,93329.59
2022-11-05T00:44:07.146Z,93327.41
2022-11-05T00:45:05.685Z,93325.31
2022-11-05T00:46:02.340Z,93328.44
2022-11-05T00:47:18.860Z,93317.38
2022-11-05T00:48:33.857Z,93324.56
2022-11-05T00:49:30.416Z,93323.00
2022-11-05T00:50:27.631Z,93312.13
2022-11-05T00:51:24.183Z,93284.56
2022-11-05T00:52:39.210Z,93318.66
2022-11-05T00:53:35.990Z,93313.94
2022-11-05T00:54:32.585Z,93319.66
2022-11-05T00:55:38.490Z,93318.06
2022-11-05T00:56:35.029Z,93321.09
2022-11-05T00:57:31.640Z,93316.28
2022-11-05T00:58:29.289Z,93316.03
2022-11-05T00:59:25.850Z,93303.94
2022-11-05T01:00:23.959Z,93310.50
2022-11-05T01:01:20.611Z,93295.44
2022-11-05T01:02:17.423Z,93323.06
2022-11-05T01:03:16.398Z,93336.41
2022-11-05T01:04:12.983Z,93332.06
2022-11-05T01:05:09.556Z,93314.47
2022-11-05T01:06:17.236Z,93331.38
2022-11-05T01:07:13.776Z,93331.38
2022-11-05T01:08:11.726Z,93283.06
2022-11-05T01:09:08.337Z,93325.78
2022-11-05T01:10:05.445Z,93335.16
2022-11-05T01:11:09.665Z,93332.19
2022-11-05T01:12:06.425Z,93328.09
2022-11-05T01:13:03.013Z,93323.09
2022-11-05T01:14:02.597Z,93324.13
2022-11-05T01:14:59.426Z,93323.09
2022-11-05T01:15:56.996Z,93320.78
2022-11-05T01:16:53.591Z,93316.13
2022-11-05T01:17:52.282Z,93270.72
2022-11-05T01:18:48.885Z,93313.31
2022-11-05T01:19:45.443Z,93320.91
2022-11-05T01:20:42.121Z,93315.97
2022-11-05T01:21:38.890Z,93316.81
2022-11-05T01:22:35.536Z,93307.50
2022-11-05T01:23:32.070Z,93302.16
2022-11-05T01:24:28.646Z,93313.41
2022-11-05T01:25:25.225Z,93312.91
2022-11-05T01:26:21.976Z,93310.19
2022-11-05T01:27:18.689Z,93305.69
2022-11-05T01:28:15.356Z,93244.59
2022-11-05T01:29:12.063Z,93305.31
2022-11-05T01:30:09.355Z,93303.72
2022-11-05T01:31:06.055Z,93303.94
2022-11-05T01:32:02.587Z,93297.16
2022-11-05T01:32:59.242Z,93234.72
2022-11-05T01:33:55.791Z,93288.91
2022-11-05T01:34:52.353Z,93240.56
2022-11-05T01:35:51.710Z,93288.19
2022-11-05T01:36:48.288Z,93283.06
2022-11-05T01:37:44.947Z,93283.41
2022-11-05T01:38:41.579Z,93290.34
2022-11-05T01:39:38.117Z,93274.53
2022-11-05T01:40:34.743Z,93279.69
2022-11-05T01:41:31.346Z,93245.50
2022-11-05T01:42:28.638Z,93267.63
2022-11-05T01:43:25.428Z,93272.69
2022-11-05T01:44:57.410Z,93278.59
2022-11-05T01:45:58.618Z,93276.38
2022-11-05T01:46:55.278Z,93272.66
2022-11-05T01:48:08.151Z,93279.00
2022-11-05T01:49:14.194Z,93276.50
2022-11-05T01:50:44.762Z,93275.84
2022-11-05T01:51:43.771Z,93275.47
2022-11-05T01:52:40.530Z,93265.00
2022-11-05T01:53:42.528Z,93232.94
2022-11-05T01:54:39.103Z,93268.47
2022-11-05T01:55:41.110Z,93269.31
2022-11-05T01:56:45.964Z,93271.78
2022-11-05T01:57:42.573Z,93265.81
2022-11-05T01:59:02.089Z,93219.47
2022-11-05T02:00:01.391Z,93259.16
2022-11-05T02:00:57.984Z,93258.63
2022-11-05T02:01:55.096Z,93258.63
2022-11-05T02:02:51.868Z,93257.66
2022-11-05T02:03:50.632Z,93251.13
2022-11-05T02:04:56.725Z,93228.22
2022-11-05T02:05:55.433Z,93248.34
2022-11-05T02:06:53.170Z,93246.81
2022-11-05T02:07:50.180Z,93239.13
2022-11-05T02:09:07.817Z,93242.72
2022-11-05T02:10:06.166Z,93234.91
2022-11-05T02:11:03.993Z,93239.47
2022-11-05T02:12:00.849Z,93249.94
2022-11-05T02:12:57.544Z,93248.50
2022-11-05T02:13:54.468Z,93251.81
2022-11-05T02:14:51.177Z,93165.31
2022-11-05T02:16:07.856Z,93251.00
2022-11-05T02:17:13.542Z,93249.75
2022-11-05T02:18:26.837Z,93248.13
2022-11-05T02:19:44.405Z,93258.41
2022-11-05T02:20:58.033Z,93252.81
2022-11-05T02:22:21.904Z,93258.34
2022-11-05T02:24:01.386Z,93258.25
2022-11-05T02:25:19.502Z,93256.91
2022-11-05T02:26:36.551Z,93261.03
2022-11-05T02:27:43.282Z,93250.38
2022-11-05T02:29:08.421Z,93246.72
2022-11-05T02:30:07.425Z,93208.88
2022-11-05T02:31:31.160Z,93256.25
2022-11-05T02:32:35.554Z,93256.16
2022-11-05T02:33:57.130Z,93258.16
2022-11-05T02:35:22.657Z,93258.09
2022-11-05T02:37:02.857Z,93251.16
2022-11-05T02:38:13.243Z,93262.03
2022-11-05T02:39:09.899Z,93258.28
2022-11-05T02:40:19.126Z,93266.34
2022-11-05T02:41:41.154Z,93225.16
2022-11-05T02:42:44.466Z,93270.66
2022-11-05T02:43:59.816Z,93259.22
2022-11-05T02:45:11.183Z,93258.06
2022-11-05T02:46:13.419Z,93262.56
2022-11-05T02:47:22.041Z,93250.59
2022-11-05T02:48:39.188Z,93247.09
2022-11-05T02:49:54.089Z,93255.13
2022-11-05T02:50:58.133Z,93248.69
2022-11-05T02:52:01.316Z,93221.69
2022-11-05T02:53:42.482Z,93249.28
2022-11-05T02:54:42.061Z,93245.69
2022-11-05T02:56:01.088Z,93243.22
2022-11-05T02:57:00.434Z,93255.56
2022-11-05T02:57:59.790Z,93253.44
2022-11-05T02:58:56.373Z,93252.19
2022-11-05T03:00:42.092Z,93256.13
2022-11-05T03:01:41.353Z,93259.97
2022-11-05T03:02:38.281Z,93192.91
2022-11-05T03:03:48.498Z,93260.00
2022-11-05T03:04:45.134Z,93259.28
2022-11-05T03:05:55.604Z,93263.97
2022-11-05T03:07:38.014Z,93264.56
2022-11-05T03:08:58.681Z,93222.97
2022-11-05T03:09:58.177Z,93264.22
2022-11-05T03:11:17.649Z,93264.31
2022-11-05T03:12:35.599Z,93262.84
2022-11-05T03:14:03.825Z,93261.59
2022-11-05T03:15:39.618Z,93262.50
2022-11-05T03:16:41.678Z,93253.88
2022-11-05T03:17:44.011Z,93262.44
2022-11-05T03:18:47.867Z,93264.91
2022-11-05T03:20:01.855Z,93257.66
2022-11-05T03:21:01.475Z,93251.78
2022-11-05T03:22:04.315Z,93248.16
2022-11-05T03:23:03.674Z,93251.09
2022-11-05T03:24:11.578Z,93221.91
2022-11-05T03:25:16.041Z,93250.69
2022-11-05T03:26:24.462Z,93248.94
2022-11-05T03:27:29.181Z,93256.25
2022-11-05T03:28:29.663Z,93254.50
2022-11-05T03:29:33.130Z,93248.94
2022-11-05T03:30:32.386Z,93257.03
2022-11-05T03:31:30.966Z,93252.78
2022-11-05T03:32:31.723Z,93262.19
2022-11-05T03:33:31.705Z,93258.22
2022-11-05T03:34:34.749Z,93242.22
2022-11-05T03:35:40.068Z,93265.88
2022-11-05T03:36:42.513Z,93264.03
2022-11-05T03:37:40.832Z,93273.47
2022-11-05T03:38:41.686Z,93275.00
2022-11-05T03:39:43.645Z,93257.34
2022-11-05T03:40:42.761Z,93277.97
2022-11-05T03:41:43.372Z,93272.09
2022-11-05T03:42:46.373Z,93284.25
2022-11-05T03:43:48.178Z,93279.31
2022-11-05T03:44:49.502Z,93279.56
2022-11-05T03:45:56.146Z,93287.91
2022-11-05T03:46:56.931Z,93297.03
2022-11-05T03:47:57.475Z,93295.69
2022-11-05T03:48:57.745Z,93274.75
2022-11-05T03:50:00.267Z,93295.16
2022-11-05T03:51:02.690Z,93301.50
2022-11-05T03:52:06.295Z,93301.72
2022-11-05T03:53:15.332Z,93298.19
2022-11-05T03:54:12.921Z,93304.13
2022-11-05T03:55:10.427Z,93297.38
2022-11-05T03:56:12.965Z,93297.97
2022-11-05T03:57:09.384Z,93297.53
2022-11-05T03:58:06.332Z,93298.16
2022-11-05T03:59:05.024Z,93298.38
2022-11-05T04:00:01.716Z,93296.41
2022-11-05T04:01:02.217Z,93301.72
2022-11-05T04:01:58.876Z,93291.13
2022-11-05T04:02:55.937Z,93306.41
2022-11-05T04:03:52.553Z,93298.66
2022-11-05T04:04:49.193Z,93307.72
2022-11-05T04:06:05.977Z,93308.47
2022-11-05T04:07:21.450Z,93303.78
2022-11-05T04:08:36.600Z,93302.75
2022-11-05T04:09:51.402Z,93300.16
2022-11-05T04:11:06.261Z,93297.44
2022-11-05T04:12:21.675Z,93305.38
2022-11-05T04:13:24.213Z,93304.09
2022-11-05T04:14:20.823Z,93302.75
2022-11-05T04:15:17.497Z,93282.56
2022-11-05T04:16:32.627Z,93307.88
2022-11-05T04:17:29.293Z,93312.22
2022-11-05T04:18:26.037Z,93308.78
2022-11-05T04:19:40.888Z,93307.78
2022-11-05T04:20:56.091Z,93304.28
2022-11-05T04:22:11.282Z,93309.47
2022-11-05T04:23:26.280Z,93304.38
2022-11-05T04:24:22.830Z,93303.47
2022-11-05T04:25:20.715Z,93272.38
2022-11-05T04:26:17.295Z,93299.22
2022-11-05T04:27:13.877Z,93306.94
2022-11-05T04:28:10.579Z,93305.59
2022-11-05T04:29:26.210Z,93302.84
2022-11-05T04:30:23.046Z,93305.22
2022-11-05T04:31:19.577Z,93312.56
2022-11-05T04:32:16.129Z,93308.47
2022-11-05T04:33:17.303Z,93313.81
2022-11-05T04:34:14.533Z,93282.25
2022-11-05T04:35:11.103Z,93318.16
2022-11-05T04:36:07.911Z,93316.66
2022-11-05T04:37:04.453Z,93308.88
2022-11-05T04:38:01.996Z,93317.91
2022-11-05T04:38:58.553Z,93321.00
2022-11-05T04:39:55.153Z,93322.28
2022-11-05T04:40:51.747Z,93319.06
2022-11-05T04:41:48.842Z,93328.00
2022-11-05T04:42:45.448Z,93323.78
2022-11-05T04:43:42.363Z,93324.22
2022-11-05T04:44:38.910Z,93318.50
2022-11-05T04:45:36.062Z,93328.75
2022-11-05T04:46:32.655Z,93329.63
2022-11-05T04:47:29.197Z,93334.56
2022-11-05T04:48:25.801Z,93335.22
2022-11-05T04:49:22.356Z,93336.69
2022-11-05T04:50:19.086Z,93327.38
2022-11-05T04:51:15.725Z,93283.19
2022-11-05T04:52:12.287Z,93325.41
2022-11-05T04:53:09.028Z,93326.44
2022-11-05T04:54:05.980Z,93334.94
2022-11-05T04:55:02.598Z,93337.31
2022-11-05T04:56:22.289Z,93341.25
2022-11-05T04:57:18.871Z,93346.09
2022-11-05T04:58:15.431Z,93325.41
2022-11-05T04:59:12.009Z,93344.09
2022-11-05T05:00:09.404Z,93318.25
2022-11-05T05:01:06.060Z,93339.81
2022-11-05T05:02:02.819Z,93335.84
2022-11-05T05:02:59.447Z,93335.13
2022-11-05T05:03:56.176Z,93310.59
2022-11-05T05:04:52.773Z,93322.16
2022-11-05T05:05:52.892Z,93331.50
2022-11-05T05:06:50.337Z,93333.81
2022-11-05T05:07:47.018Z,93316.56
2022-11-05T05:08:43.687Z,93336.81
2022-11-05T05:09:40.290Z,93342.09
2022-11-05T05:10:36.884Z,93336.34
2022-11-05T05:11:33.600Z,93340.94
2022-11-05T05:12:30.180Z,93335.47
2022-11-05T05:13:27.091Z,93337.50
2022-11-05T05:14:23.662Z,93337.09
2022-11-05T05:15:20.246Z,93338.47
2022-11-05T05:16:21.278Z,93331.53
2022-11-05T05:17:17.854Z,93343.31
2022-11-05T05:18:14.434Z,93309.03
2022-11-05T05:19:10.992Z,93327.66
2022-11-05T05:20:26.375Z,93323.81
2022-11-05T05:21:42.252Z,93328.44
2022-11-05T05:22:38.834Z,93286.50
2022-11-05T05:23:35.386Z,93333.31
2022-11-05T05:24:32.018Z,93344.28
2022-11-05T05:25:28.606Z,93338.47
2022-11-05T05:26:25.190Z,93337.16
2022-11-05T05:27:22.878Z,93277.50
2022-11-05T05:28:19.434Z,93344.63
2022-11-05T05:29:16.582Z,93342.78
2022-11-05T05:30:13.381Z,93345.09
2022-11-05T05:31:09.928Z,93352.25
2022-11-05T05:32:07.022Z,93353.53
2022-11-05T05:33:04.650Z,93345.53
2022-11-05T05:34:01.489Z,93358.19
2022-11-05T05:34:58.030Z,93361.16
2022-11-05T05:35:58.069Z,93360.94
2022-11-05T05:36:54.787Z,93365.94
2022-11-05T05:37:55.664Z,93364.84
2022-11-05T05:38:52.567Z,93361.94
2022-11-05T05:39:49.830Z,93359.03
2022-11-05T05:40:46.399Z,93361.06
2022-11-05T05:41:42.936Z,93363.66
2022-11-05T05:42:43.052Z,93358.53
2022-11-05T05:43:39.892Z,93367.22
2022-11-05T05:44:36.790Z,93371.28
2022-11-05T05:45:35.622Z,93353.88
2022-11-05T05:46:32.174Z,93362.38
2022-11-05T05:47:28.752Z,93361.44
2022-11-05T05:48:25.392Z,93324.75
2022-11-05T05:49:21.978Z,93369.03
2022-11-05T05:50:18.554Z,93365.03
2022-11-05T05:51:15.123Z,93373.41
2022-11-05T05:52:11.762Z,93331.44
2022-11-05T05:53:09.076Z,93383.16
2022-11-05T05:54:05.873Z,93376.63
2022-11-05T05:55:02.433Z,93378.31
2022-11-05T05:55:59.473Z,93383.66
2022-11-05T05:56:56.201Z,93321.59
2022-11-05T05:57:53.858Z,93383.22
2022-11-05T05:58:50.475Z,93388.50
2022-11-05T05:59:47.131Z,93386.63
2022-11-05T06:00:43.785Z,93386.19
2022-11-05T06:01:40.639Z,93351.56
2022-11-05T06:02:37.520Z,93368.56
2022-11-05T06:03:34.494Z,93356.94
2022-11-05T06:04:31.102Z,93383.47
2022-11-05T06:05:27.710Z,93387.38
2022-11-05T06:06:24.268Z,93383.13
2022-11-05T06:07:20.789Z,93381.97
2022-11-05T06:08:17.392Z,93386.50
2022-11-05T06:09:14.801Z,93385.28
2022-11-05T06:10:11.476Z,93382.59
2022-11-05T06:11:08.950Z,93381.97
2022-11-05T06:12:05.856Z,93376.16
2022-11-05T06:13:02.743Z,93379.16
2022-11-05T06:13:59.390Z,93377.78
2022-11-05T06:14:55.976Z,93379.47
2022-11-05T06:15:52.790Z,93381.00
2022-11-05T06:16:49.420Z,93385.72
2022-11-05T06:17:46.475Z,93375.72
2022-11-05T06:18:43.047Z,93344.50
2022-11-05T06:19:39.631Z,93372.66
2022-11-05T06:20:36.161Z,93375.34
2022-11-05T06:21:33.089Z,93370.34
2022-11-05T06:22:29.621Z,93367.25
2022-11-05T06:23:26.197Z,93359.91
2022-11-05T06:24:22.734Z,93352.44
2022-11-05T06:25:19.273Z,93377.94
2022-11-05T06:33:29.809Z,93386.59
2022-11-05T06:34:26.349Z,93374.97
2022-11-05T06:35:22.995Z,93373.34
2022-11-05T06:36:20.467Z,93374.66
2022-11-05T06:37:17.028Z,93361.63
2022-11-05T06:38:13.738Z,93372.13
2022-11-05T06:39:11.795Z,93362.38
2022-11-05T06:40:09.292Z,93372.47
2022-11-05T06:41:10.317Z,93378.81
2022-11-05T06:42:22.583Z,93369.50
2022-11-05T06:43:19.179Z,93380.28
2022-11-05T06:44:15.769Z,93380.22
2022-11-05T06:45:12.293Z,93384.53
2022-11-05T06:46:10.589Z,93364.41
2022-11-05T06:47:07.242Z,93345.59
2022-11-05T06:48:03.980Z,93385.97
2022-11-05T06:49:00.692Z,93350.16
2022-11-05T06:49:57.500Z,93385.56
2022-11-05T06:50:54.299Z,93382.47
2022-11-05T06:51:51.937Z,93377.16
2022-11-05T06:52:59.357Z,93379.34
2022-11-05T06:53:55.930Z,93371.31
2022-11-05T06:54:52.491Z,93370.41
2022-11-05T06:55:49.073Z,93377.59
2022-11-05T06:56:45.679Z,93372.78
2022-11-05T06:57:42.248Z,93378.22
2022-11-05T06:58:38.847Z,93376.03
2022-11-05T06:59:36.311Z,93382.88
2022-11-05T07:00:32.927Z,93376.72
2022-11-05T07:01:29.743Z,93314.78
2022-11-05T07:02:26.437Z,93373.06
2022-11-05T07:03:23.035Z,93377.09
2022-11-05T07:04:19.578Z,93367.44
2022-11-05T07:05:17.082Z,93368.44
2022-11-05T07:06:13.706Z,93357.22
2022-11-05T07:07:10.554Z,93367.00
2022-11-05T07:08:07.270Z,93367.06
2022-11-05T07:09:04.408Z,93357.53
2022-11-05T07:10:00.972Z,93358.94
2022-11-05T07:10:57.572Z,93319.09
2022-11-05T07:11:54.697Z,93354.63
2022-11-05T07:12:51.645Z,93364.47
2022-11-05T07:13:48.283Z,93360.13
2022-11-05T07:14:44.877Z,93362.84
2022-11-05T07:15:41.566Z,93316.16
2022-11-05T07:16:38.170Z,93366.84
2022-11-05T07:17:34.729Z,93367.25
2022-11-05T07:18:31.358Z,93371.91
2022-11-05T07:19:27.944Z,93371.09
2022-11-05T07:20:28.227Z,93372.38
2022-11-05T07:21:29.171Z,93332.66
2022-11-05T07:22:25.708Z,93358.97
2022-11-05T07:23:22.295Z,93365.81
2022-11-05T07:24:18.838Z,93357.84
2022-11-05T07:25:15.397Z,93351.03
2022-11-05T07:26:11.998Z,93354.88
2022-11-05T07:27:08.578Z,93350.19
2022-11-05T07:28:05.506Z,93354.84
2022-11-05T07:29:02.204Z,93350.34
2022-11-05T07:29:58.755Z,93352.31
2022-11-05T07:30:55.408Z,93337.72
2022-11-05T07:31:52.005Z,93341.56
2022-11-05T07:32:48.637Z,93336.28
2022-11-05T07:33:45.215Z,93340.44
2022-11-05T07:34:41.765Z,93352.06
2022-11-05T07:35:38.371Z,93346.75
2022-11-05T07:36:34.995Z,93333.38
2022-11-05T07:37:31.571Z,93347.53
2022-11-05T07:38:28.215Z,93312.19
2022-11-05T07:39:24.829Z,93356.75
2022-11-05T07:40:23.493Z,93340.19
2022-11-05T07:41:20.133Z,93349.38
2022-11-05T07:42:16.858Z,93353.59
2022-11-05T07:43:13.768Z,93339.44
2022-11-05T07:44:11.715Z,93355.94
2022-11-05T07:45:08.813Z,93344.44
2022-11-05T07:46:07.585Z,93314.78
2022-11-05T07:47:08.082Z,93319.09
2022-11-05T07:48:05.466Z,93350.13
2022-11-05T07:49:02.289Z,93344.41
2022-11-05T07:49:58.878Z,93339.78
2022-11-05T07:50:55.473Z,93322.47
2022-11-05T07:51:52.058Z,93308.34
2022-11-05T07:52:49.311Z,93329.44
2022-11-05T07:53:48.184Z,93322.63
2022-11-05T07:54:44.786Z,93328.41
2022-11-05T07:55:42.220Z,93328.03
2022-11-05T07:56:38.852Z,93322.28
2022-11-05T07:57:48.998Z,93329.56
2022-11-05T07:58:45.573Z,93335.31
2022-11-05T07:59:42.134Z,93326.88
2022-11-05T08:00:39.157Z,93322.25
2022-11-05T08:01:35.957Z,93336.09
2022-11-05T08:02:32.835Z,93323.44
2022-11-05T08:03:29.734Z,93293.47
2022-11-05T08:04:26.438Z,93314.50
2022-11-05T08:05:23.132Z,93329.84
2022-11-05T08:06:19.720Z,93287.22
2022-11-05T08:07:16.238Z,93337.91
2022-11-05T08:08:17.875Z,93327.53
2022-11-05T08:09:14.423Z,93327.84
2022-11-05T08:10:10.973Z,93330.38
2022-11-05T08:11:09.846Z,93326.03
2022-11-05T08:12:06.918Z,93289.50
2022-11-05T08:13:04.810Z,93332.25
2022-11-05T08:14:01.444Z,93326.22
2022-11-05T08:14:58.061Z,93327.41
2022-11-05T08:15:57.489Z,93330.31
2022-11-05T08:16:54.042Z,93313.00
2022-11-05T08:17:50.861Z,93328.34
2022-11-05T08:18:48.346Z,93327.22
2022-11-05T08:19:44.893Z,93294.31
2022-11-05T08:20:43.132Z,93327.63
2022-11-05T08:21:39.679Z,93326.66
2022-11-05T08:22:36.318Z,93312.47
2022-11-05T08:23:33.535Z,93331.69
2022-11-05T08:24:30.115Z,93336.66
2022-11-05T08:25:27.231Z,93333.19
2022-11-05T08:26:23.822Z,93322.03
2022-11-05T08:27:20.402Z,93322.75
2022-11-05T08:28:17.082Z,93322.56
2022-11-05T08:29:13.657Z,93323.91
2022-11-05T08:30:10.707Z,93334.88
2022-11-05T08:31:07.318Z,93330.13
2022-11-05T08:32:03.922Z,93308.84
2022-11-05T08:33:06.884Z,93333.75
2022-11-05T08:34:03.466Z,93335.88
2022-11-05T08:35:00.020Z,93336.81
2022-11-05T08:35:57.024Z,93347.59
2022-11-05T08:36:53.592Z,93342.84
2022-11-05T08:37:50.156Z,93342.78
2022-11-05T08:38:46.703Z,93346.50
2022-11-05T08:39:43.253Z,93344.16
2022-11-05T08:40:40.623Z,93340.66
2022-11-05T08:41:37.182Z,93329.69
2022-11-05T08:42:33.761Z,93321.22
2022-11-05T08:43:30.373Z,93329.97
2022-11-05T08:44:26.974Z,93329.16
2022-11-05T08:45:26.061Z,93337.53
2022-11-05T08:46:22.824Z,93334.47
2022-11-05T08:47:19.445Z,93332.41
2022-11-05T08:48:18.173Z,93328.06
2022-11-05T08:49:14.797Z,93310.31
2022-11-05T08:50:11.343Z,93300.16
2022-11-05T08:51:07.996Z,93318.69
2022-11-05T08:52:04.780Z,93288.22
2022-11-05T08:53:01.703Z,93314.78
2022-11-05T08:53:58.314Z,93318.88
2022-11-05T08:54:55.255Z,93315.56
2022-11-05T08:55:51.876Z,93310.28
2022-11-05T08:56:48.438Z,93319.97
2022-11-05T08:57:48.294Z,93310.25
2022-11-05T08:58:44.951Z,93312.88
2022-11-05T08:59:41.492Z,93306.56
2022-11-05T09:00:39.048Z,93313.75
2022-11-05T09:01:35.857Z,93313.03
2022-11-05T09:02:32.632Z,93308.34
2022-11-05T09:03:29.303Z,93318.47
2022-11-05T09:04:28.650Z,93306.16
2022-11-05T09:05:25.215Z,93289.00
2022-11-05T09:06:22.023Z,93313.81
2022-11-05T09:07:18.698Z,93310.31
2022-11-05T09:08:18.049Z,93305.53
2022-11-05T09:09:14.611Z,93301.63
2022-11-05T09:10:11.190Z,93310.84
2022-11-05T09:11:07.806Z,93305.19
2022-11-05T09:12:13.096Z,93306.19
2022-11-05T09:13:16.486Z,93300.53
2022-11-05T09:14:14.675Z,93294.22
2022-11-05T09:15:11.785Z,93300.28
2022-11-05T09:16:19.135Z,93274.84
2022-11-05T09:17:18.816Z,93303.38
2022-11-05T09:18:16.348Z,93307.25
2022-11-05T09:19:12.977Z,93303.00
2022-11-05T09:20:11.477Z,93228.13
2022-11-05T09:21:08.269Z,93302.66
2022-11-05T09:22:04.908Z,93285.00
2022-11-05T09:23:01.538Z,93294.16
2022-11-05T09:23:58.109Z,93305.47
2022-11-05T09:24:54.715Z,93303.84
2022-11-05T09:25:51.289Z,93302.69
2022-11-05T09:26:48.062Z,93303.69
2022-11-05T09:27:44.790Z,93264.59
2022-11-05T09:28:43.315Z,93306.88
2022-11-05T09:29:42.779Z,93303.41
2022-11-05T09:30:41.498Z,93300.81
2022-11-05T09:31:38.040Z,93296.41
2022-11-05T09:32:34.584Z,93262.00
2022-11-05T09:33:31.139Z,93295.41
2022-11-05T09:34:28.092Z,93297.28
2022-11-05T09:35:24.688Z,93304.59
2022-11-05T09:36:21.254Z,93303.22
2022-11-05T09:37:17.810Z,93291.13
2022-11-05T09:38:14.697Z,93296.28
2022-11-05T09:39:11.275Z,93288.63
2022-11-05T09:40:08.160Z,93270.59
2022-11-05T09:41:07.833Z,93286.06
2022-11-05T09:42:07.727Z,93294.50
2022-11-05T09:43:06.654Z,93284.94
2022-11-05T09:44:10.429Z,93286.13
2022-11-05T09:45:15.780Z,93284.00
2022-11-05T09:46:28.860Z,93234.25
2022-11-05T09:47:35.004Z,93280.19
2022-11-05T09:48:32.880Z,93280.41
2022-11-05T09:49:40.047Z,93281.34
2022-11-05T09:50:44.364Z,93274.38
2022-11-05T09:51:41.320Z,93293.41
2022-11-05T09:52:38.551Z,93288.72
2022-11-05T09:53:40.199Z,93276.56
2022-11-05T09:54:37.922Z,93290.00
2022-11-05T09:55:41.427Z,93283.59
2022-11-05T09:56:40.924Z,93291.03
2022-11-05T09:57:49.001Z,93291.22
2022-11-05T09:58:51.755Z,93283.28
2022-11-05T09:59:57.861Z,93255.88
2022-11-05T10:00:54.727Z,93281.78
2022-11-05T10:01:56.432Z,93294.28
2022-11-05T10:02:57.336Z,93293.06
2022-11-05T10:03:58.367Z,93289.59
2022-11-05T10:05:04.879Z,93261.88
2022-11-05T10:06:09.343Z,93293.56
2022-11-05T10:07:11.646Z,93295.22
2022-11-05T10:08:17.743Z,93276.78
2022-11-05T10:09:26.706Z,93294.16
2022-11-05T10:10:30.610Z,93292.50
2022-11-05T10:11:37.957Z,93257.00
2022-11-05T10:12:34.453Z,93288.81
2022-11-05T10:14:01.246Z,93290.81
2022-11-05T10:15:13.484Z,93288.56
2022-11-05T10:16:25.263Z,93291.81
2022-11-05T10:17:26.635Z,93280.78
2022-11-05T10:18:32.656Z,93283.28
2022-11-05T10:19:47.265Z,93243.81
2022-11-05T10:20:45.025Z,93281.09
2022-11-05T10:22:05.435Z,93279.47
2022-11-05T10:23:08.888Z,93215.69
2022-11-05T10:24:20.175Z,93260.78
2022-11-05T10:25:22.096Z,93275.19
2022-11-05T10:26:21.869Z,93204.06
2022-11-05T10:27:23.578Z,93266.06
2022-11-05T10:28:26.238Z,93247.28
2022-11-05T10:29:29.299Z,93270.84
2022-11-05T10:30:26.086Z,93272.31
2022-11-05T10:31:23.649Z,93238.28
2022-11-05T10:32:40.356Z,93264.00
2022-11-05T10:33:50.098Z,93263.34
2022-11-05T10:34:47.132Z,93235.59
2022-11-05T10:35:51.210Z,93259.19
2022-11-05T10:36:48.458Z,93253.97
2022-11-05T10:37:46.767Z,93257.00
2022-11-05T10:38:43.419Z,93251.63
2022-11-05T10:39:39.979Z,93257.84
2022-11-05T10:40:55.367Z,93249.88
2022-11-05T10:42:00.956Z,93251.88
2022-11-05T10:43:21.799Z,93254.75
2022-11-05T10:44:52.477Z,93250.69
2022-11-05T10:45:55.389Z,93252.56
2022-11-05T10:46:57.917Z,93256.97
2022-11-05T10:48:00.420Z,93254.44
2022-11-05T10:49:24.779Z,93258.53
2022-11-05T10:50:29.862Z,93225.06
2022-11-05T10:51:26.827Z,93255.38
2022-11-05T10:52:35.955Z,93262.66
2022-11-05T10:53:35.680Z,93233.88
2022-11-05T10:54:35.228Z,93248.72
2022-11-05T10:55:43.377Z,93258.66
2022-11-05T10:56:41.261Z,93250.63
2022-11-05T10:57:40.365Z,93243.78
2022-11-05T10:58:40.237Z,93250.97
2022-11-05T10:59:36.935Z,93234.59
2022-11-05T11:00:33.625Z,93249.88
2022-11-05T11:01:31.020Z,93244.53
2022-11-05T11:02:30.453Z,93248.41
2022-11-05T11:03:41.369Z,93246.03
2022-11-05T11:04:38.397Z,93206.72
2022-11-05T11:05:39.057Z,93248.19
2022-11-05T11:06:39.111Z,93239.88
2022-11-05T11:07:36.257Z,93243.84
2022-11-05T11:08:35.700Z,93237.50
2022-11-05T11:09:36.312Z,93243.69
2022-11-05T11:10:47.984Z,93221.09
2022-11-05T11:11:44.955Z,93225.78
2022-11-05T11:12:43.642Z,93234.88
2022-11-05T11:13:58.280Z,93233.19
2022-11-05T11:15:04.510Z,93222.75
2022-11-05T11:16:24.020Z,93229.28
2022-11-05T11:17:27.885Z,93230.75
2022-11-05T11:18:40.304Z,93240.19
2022-11-05T11:19:37.143Z,93226.72
2022-11-05T11:20:34.042Z,93233.13
2022-11-05T11:21:32.791Z,93237.34
2022-11-05T11:22:29.391Z,93236.59
2022-11-05T11:23:26.028Z,93238.50
2022-11-05T11:24:29.660Z,93237.09
2022-11-05T11:25:41.526Z,93245.09
2022-11-05T11:26:40.354Z,93241.56
2022-11-05T11:27:37.865Z,93237.25
2022-11-05T11:28:47.867Z,93228.38
2022-11-05T11:30:00.828Z,93223.75
2022-11-05T11:31:04.509Z,93231.44
2022-11-05T11:32:01.221Z,93217.06
2022-11-05T11:33:11.822Z,93223.34
2022-11-05T11:34:14.465Z,93227.84
2022-11-05T11:35:25.871Z,93224.69
2022-11-05T11:36:32.233Z,93222.34
2022-11-05T11:37:33.412Z,93222.91
2022-11-05T11:38:33.070Z,93231.56
2022-11-05T11:39:31.633Z,93227.28
2022-11-05T11:40:37.964Z,93222.31
2022-11-05T11:41:42.041Z,93219.13
2022-11-05T11:42:41.417Z,93218.56
2022-11-05T11:43:41.649Z,93225.63
2022-11-05T11:44:44.687Z,93225.34
2022-11-05T11:45:51.138Z,93225.69
2022-11-05T11:46:53.321Z,93218.22
2022-11-05T11:47:53.435Z,93200.94
2022-11-05T11:48:50.197Z,93227.81
2022-11-05T11:49:52.557Z,93226.31
2022-11-05T11:50:50.177Z,93197.00
2022-11-05T11:51:49.968Z,93232.78
2022-11-05T11:52:46.922Z,93231.63
2022-11-05T11:53:43.754Z,93223.53
2022-11-05T11:54:40.361Z,93233.84
2022-11-05T11:55:36.964Z,93226.47
2022-11-05T11:56:44.653Z,93229.78
2022-11-05T11:57:54.652Z,93232.28
2022-11-05T11:58:56.137Z,93226.88
2022-11-05T12:00:08.201Z,93223.88
2022-11-05T12:01:24.671Z,93231.56
2022-11-05T12:02:33.321Z,93234.66
2022-11-05T12:03:42.803Z,93229.81
2022-11-05T12:04:42.241Z,93228.78
2022-11-05T12:06:07.123Z,93225.59